sensor_id;sensor_type;location;lat;lon;timestamp;temperature;humidity
12370;DHT22;6249;52.128;9.986;2022-09-29T00:00:24;8.20;99.90
12370;DHT22;6249;52.128;9.986;2022-09-29T00:03:49;8.20;99.90
12370;DHT22;6249;52.128;9.986;2022-09-29T00:07:09;8.10;99.90
12370;DHT22;6249;52.128;9.986;2022-09-29T00:10:30;8.00;99.90
12370;DHT22;6249;52.128;9.986;2022-09-29T00:13:56;7.80;99.90
12370;DHT22;6249;52.128;9.986;2022-09-29T00:17:17;7.80;99.90
12370;DHT22;6249;52.128;9.986;2022-09-29T00:20:38;7.70;99.90
12370;DHT22;6249;52.128;9.986;2022-09-29T00:24:01;7.60;99.90
12370;DHT22;6249;52.128;9.986;2022-09-29T00:27:21;7.60;99.90
12370;DHT22;6249;52.128;9.986;2022-09-29T00:30:42;7.50;99.90
12370;DHT22;6249;52.128;9.986;2022-09-29T00:34:05;7.50;99.90
12370;DHT22;6249;52.128;9.986;2022-09-29T00:37:28;7.50;99.90
12370;DHT22;6249;52.128;9.986;2022-09-29T00:40:51;7.40;99.90
12370;DHT22;6249;52.128;9.986;2022-09-29T00:47:35;7.30;99.90
12370;DHT22;6249;52.128;9.986;2022-09-29T00:50:58;8.00;99.90
12370;DHT22;6249;52.128;9.986;2022-09-29T00:54:23;7.20;99.90
12370;DHT22;6249;52.128;9.986;2022-09-29T00:58:08;7.30;99.90
12370;DHT22;6249;52.128;9.986;2022-09-29T01:01:35;7.20;99.90
12370;DHT22;6249;52.128;9.986;2022-09-29T01:04:55;7.20;99.90
12370;DHT22;6249;52.128;9.986;2022-09-29T01:08:32;7.10;99.90
12370;DHT22;6249;52.128;9.986;2022-09-29T01:11:56;7.10;99.90
12370;DHT22;6249;52.128;9.986;2022-09-29T01:15:19;7.10;99.90
12370;DHT22;6249;52.128;9.986;2022-09-29T01:18:43;7.00;99.90
12370;DHT22;6249;52.128;9.986;2022-09-29T01:22:27;7.00;99.90
12370;DHT22;6249;52.128;9.986;2022-09-29T01:26:25;7.00;99.90
12370;DHT22;6249;52.128;9.986;2022-09-29T01:30:04;7.00;99.90
12370;DHT22;6249;52.128;9.986;2022-09-29T01:42:16;6.90;99.90
12370;DHT22;6249;52.128;9.986;2022-09-29T01:45:43;6.80;99.90
12370;DHT22;6249;52.128;9.986;2022-09-29T01:49:07;6.80;99.90
12370;DHT22;6249;52.128;9.986;2022-09-29T01:52:32;6.80;99.90
12370;DHT22;6249;52.128;9.986;2022-09-29T01:56:01;6.90;99.90
12370;DHT22;6249;52.128;9.986;2022-09-29T01:59:49;6.80;99.90
12370;DHT22;6249;52.128;9.986;2022-09-29T02:03:28;6.70;99.90
12370;DHT22;6249;52.128;9.986;2022-09-29T02:07:05;6.80;99.90
12370;DHT22;6249;52.128;9.986;2022-09-29T02:10:40;6.60;99.90
12370;DHT22;6249;52.128;9.986;2022-09-29T02:17:44;6.50;99.90
12370;DHT22;6249;52.128;9.986;2022-09-29T02:21:09;6.50;99.90
12370;DHT22;6249;52.128;9.986;2022-09-29T02:24:30;6.50;99.90
12370;DHT22;6249;52.128;9.986;2022-09-29T02:27:54;6.50;99.90
12370;DHT22;6249;52.128;9.986;2022-09-29T02:31:15;6.50;99.90
12370;DHT22;6249;52.128;9.986;2022-09-29T02:34:38;6.50;99.90
12370;DHT22;6249;52.128;9.986;2022-09-29T02:38:05;6.50;99.90
12370;DHT22;6249;52.128;9.986;2022-09-29T03:00:21;6.50;99.90
12370;DHT22;6249;52.128;9.986;2022-09-29T03:03:42;6.50;99.90
12370;DHT22;6249;52.128;9.986;2022-09-29T03:07:03;6.60;99.90
12370;DHT22;6249;52.128;9.986;2022-09-29T03:10:26;6.60;99.90
12370;DHT22;6249;52.128;9.986;2022-09-29T03:13:49;6.70;99.90
12370;DHT22;6249;52.128;9.986;2022-09-29T03:17:09;6.60;99.90
12370;DHT22;6249;52.128;9.986;2022-09-29T03:20:32;6.60;99.90
12370;DHT22;6249;52.128;9.986;2022-09-29T03:23:53;6.50;99.90
12370;DHT22;6249;52.128;9.986;2022-09-29T03:27:13;6.50;99.90
12370;DHT22;6249;52.128;9.986;2022-09-29T03:30:37;6.60;99.90
12370;DHT22;6249;52.128;9.986;2022-09-29T03:33:59;6.50;99.90
12370;DHT22;6249;52.128;9.986;2022-09-29T03:37:20;6.50;99.90
12370;DHT22;6249;52.128;9.986;2022-09-29T03:40:40;6.50;99.90
12370;DHT22;6249;52.128;9.986;2022-09-29T03:44:03;6.40;99.90
12370;DHT22;6249;52.128;9.986;2022-09-29T03:47:24;6.30;99.90
12370;DHT22;6249;52.128;9.986;2022-09-29T03:50:45;6.30;99.90
12370;DHT22;6249;52.128;9.986;2022-09-29T03:54:06;6.30;99.90
12370;DHT22;6249;52.128;9.986;2022-09-29T03:57:29;6.20;99.90
12370;DHT22;6249;52.128;9.986;2022-09-29T04:00:52;6.20;99.90
12370;DHT22;6249;52.128;9.986;2022-09-29T04:04:15;6.10;99.90
12370;DHT22;6249;52.128;9.986;2022-09-29T04:07:36;6.10;99.90
12370;DHT22;6249;52.128;9.986;2022-09-29T04:10:56;6.10;99.90
12370;DHT22;6249;52.128;9.986;2022-09-29T04:14:17;6.10;99.90
12370;DHT22;6249;52.128;9.986;2022-09-29T04:17:37;6.10;99.90
12370;DHT22;6249;52.128;9.986;2022-09-29T04:20:59;6.10;99.90
12370;DHT22;6249;52.128;9.986;2022-09-29T04:24:24;6.10;99.90
12370;DHT22;6249;52.128;9.986;2022-09-29T04:27:45;6.20;99.90
12370;DHT22;6249;52.128;9.986;2022-09-29T04:31:08;6.20;99.90
12370;DHT22;6249;52.128;9.986;2022-09-29T04:34:29;6.30;99.90
12370;DHT22;6249;52.128;9.986;2022-09-29T04:37:54;6.30;99.90
12370;DHT22;6249;52.128;9.986;2022-09-29T04:41:17;6.40;99.90
12370;DHT22;6249;52.128;9.986;2022-09-29T04:44:37;6.40;99.90
12370;DHT22;6249;52.128;9.986;2022-09-29T04:47:58;6.50;99.90
12370;DHT22;6249;52.128;9.986;2022-09-29T04:51:18;6.60;99.90
12370;DHT22;6249;52.128;9.986;2022-09-29T04:54:39;6.60;99.90
12370;DHT22;6249;52.128;9.986;2022-09-29T04:58:00;6.70;99.90
12370;DHT22;6249;52.128;9.986;2022-09-29T05:01:26;6.70;99.90
12370;DHT22;6249;52.128;9.986;2022-09-29T05:04:47;6.70;99.90
12370;DHT22;6249;52.128;9.986;2022-09-29T05:08:10;6.70;99.90
12370;DHT22;6249;52.128;9.986;2022-09-29T05:11:31;6.70;99.90
12370;DHT22;6249;52.128;9.986;2022-09-29T05:14:52;7.80;99.90
12370;DHT22;6249;52.128;9.986;2022-09-29T05:18:14;6.70;99.90
12370;DHT22;6249;52.128;9.986;2022-09-29T05:21:37;6.70;99.90
12370;DHT22;6249;52.128;9.986;2022-09-29T05:24:58;6.70;99.90
12370;DHT22;6249;52.128;9.986;2022-09-29T05:28:19;6.60;99.90
12370;DHT22;6249;52.128;9.986;2022-09-29T05:31:39;6.60;99.90
12370;DHT22;6249;52.128;9.986;2022-09-29T05:35:00;6.60;99.90
12370;DHT22;6249;52.128;9.986;2022-09-29T05:38:22;6.70;99.90
12370;DHT22;6249;52.128;9.986;2022-09-29T05:41:42;6.70;99.90
12370;DHT22;6249;52.128;9.986;2022-09-29T05:45:03;6.70;99.90
12370;DHT22;6249;52.128;9.986;2022-09-29T05:48:27;6.60;99.90
12370;DHT22;6249;52.128;9.986;2022-09-29T05:51:53;6.60;99.90
12370;DHT22;6249;52.128;9.986;2022-09-29T05:55:14;6.60;99.90
12370;DHT22;6249;52.128;9.986;2022-09-29T05:58:36;6.70;99.90
12370;DHT22;6249;52.128;9.986;2022-09-29T06:01:59;6.70;99.90
12370;DHT22;6249;52.128;9.986;2022-09-29T06:05:20;6.70;99.90
12370;DHT22;6249;52.128;9.986;2022-09-29T06:08:44;6.70;99.90
12370;DHT22;6249;52.128;9.986;2022-09-29T06:12:07;6.80;99.90
12370;DHT22;6249;52.128;9.986;2022-09-29T06:15:27;6.70;99.90
12370;DHT22;6249;52.128;9.986;2022-09-29T06:18:50;6.80;99.90
12370;DHT22;6249;52.128;9.986;2022-09-29T06:22:14;6.80;99.90
12370;DHT22;6249;52.128;9.986;2022-09-29T06:25:36;6.90;99.90
12370;DHT22;6249;52.128;9.986;2022-09-29T06:29:00;6.90;99.90
12370;DHT22;6249;52.128;9.986;2022-09-29T06:32:21;7.00;99.90
12370;DHT22;6249;52.128;9.986;2022-09-29T06:35:50;7.00;99.90
12370;DHT22;6249;52.128;9.986;2022-09-29T06:39:29;7.00;99.90
12370;DHT22;6249;52.128;9.986;2022-09-29T06:42:49;7.10;99.90
12370;DHT22;6249;52.128;9.986;2022-09-29T06:46:10;7.10;99.90
12370;DHT22;6249;52.128;9.986;2022-09-29T06:49:30;7.20;99.90
12370;DHT22;6249;52.128;9.986;2022-09-29T06:52:51;7.30;99.90
12370;DHT22;6249;52.128;9.986;2022-09-29T06:56:11;7.40;99.90
12370;DHT22;6249;52.128;9.986;2022-09-29T06:59:35;7.50;99.90
12370;DHT22;6249;52.128;9.986;2022-09-29T07:02:55;7.60;99.90
12370;DHT22;6249;52.128;9.986;2022-09-29T07:06:16;7.70;99.90
12370;DHT22;6249;52.128;9.986;2022-09-29T07:09:36;7.80;99.90
12370;DHT22;6249;52.128;9.986;2022-09-29T07:12:57;7.90;99.90
12370;DHT22;6249;52.128;9.986;2022-09-29T07:16:18;8.20;99.90
12370;DHT22;6249;52.128;9.986;2022-09-29T07:19:40;8.10;99.90
12370;DHT22;6249;52.128;9.986;2022-09-29T07:23:05;8.40;99.90
12370;DHT22;6249;52.128;9.986;2022-09-29T07:26:27;8.20;99.90
12370;DHT22;6249;52.128;9.986;2022-09-29T07:29:50;8.20;99.90
12370;DHT22;6249;52.128;9.986;2022-09-29T07:33:10;8.30;99.90
12370;DHT22;6249;52.128;9.986;2022-09-29T07:36:33;8.60;99.90
12370;DHT22;6249;52.128;9.986;2022-09-29T07:40:00;8.90;99.90
12370;DHT22;6249;52.128;9.986;2022-09-29T07:43:21;9.20;99.90
12370;DHT22;6249;52.128;9.986;2022-09-29T07:46:41;9.50;99.90
12370;DHT22;6249;52.128;9.986;2022-09-29T07:50:05;9.70;99.90
12370;DHT22;6249;52.128;9.986;2022-09-29T07:53:28;10.10;99.90
12370;DHT22;6249;52.128;9.986;2022-09-29T07:56:49;10.50;99.90
12370;DHT22;6249;52.128;9.986;2022-09-29T08:00:12;10.80;99.90
12370;DHT22;6249;52.128;9.986;2022-09-29T08:03:32;11.10;99.90
12370;DHT22;6249;52.128;9.986;2022-09-29T08:06:53;11.20;99.90
12370;DHT22;6249;52.128;9.986;2022-09-29T08:10:16;11.30;99.90
12370;DHT22;6249;52.128;9.986;2022-09-29T08:13:37;11.30;99.90
12370;DHT22;6249;52.128;9.986;2022-09-29T08:17:00;11.50;99.90
12370;DHT22;6249;52.128;9.986;2022-09-29T08:20:23;11.50;99.90
12370;DHT22;6249;52.128;9.986;2022-09-29T08:23:43;11.60;99.90
12370;DHT22;6249;52.128;9.986;2022-09-29T08:27:04;11.90;99.90
12370;DHT22;6249;52.128;9.986;2022-09-29T08:30:26;12.10;99.90
12370;DHT22;6249;52.128;9.986;2022-09-29T08:33:52;12.30;99.90
12370;DHT22;6249;52.128;9.986;2022-09-29T08:37:13;12.40;99.90
12370;DHT22;6249;52.128;9.986;2022-09-29T08:40:38;12.40;99.90
12370;DHT22;6249;52.128;9.986;2022-09-29T08:47:39;12.60;99.90
12370;DHT22;6249;52.128;9.986;2022-09-29T08:51:07;13.00;99.90
12370;DHT22;6249;52.128;9.986;2022-09-29T08:54:38;13.10;99.90
12370;DHT22;6249;52.128;9.986;2022-09-29T08:58:07;13.30;99.90
12370;DHT22;6249;52.128;9.986;2022-09-29T09:01:37;13.60;99.90
12370;DHT22;6249;52.128;9.986;2022-09-29T09:23:32;14.40;99.90
12370;DHT22;6249;52.128;9.986;2022-09-29T09:26:58;14.70;99.90
12370;DHT22;6249;52.128;9.986;2022-09-29T09:30:22;15.00;99.90
12370;DHT22;6249;52.128;9.986;2022-09-29T09:33:46;15.40;99.90
12370;DHT22;6249;52.128;9.986;2022-09-29T09:40:52;15.90;99.90
12370;DHT22;6249;52.128;9.986;2022-09-29T09:47:47;16.70;99.90
12370;DHT22;6249;52.128;9.986;2022-09-29T09:52:03;16.90;99.90
12370;DHT22;6249;52.128;9.986;2022-09-29T09:55:25;17.10;99.90
12370;DHT22;6249;52.128;9.986;2022-09-29T10:02:41;17.30;99.90
12370;DHT22;6249;52.128;9.986;2022-09-29T10:06:06;17.50;99.90
12370;DHT22;6249;52.128;9.986;2022-09-29T10:09:28;17.90;99.90
12370;DHT22;6249;52.128;9.986;2022-09-29T10:13:05;18.20;99.80
12370;DHT22;6249;52.128;9.986;2022-09-29T10:16:40;18.40;99.30
12370;DHT22;6249;52.128;9.986;2022-09-29T10:20:05;18.50;98.70
12370;DHT22;6249;52.128;9.986;2022-09-29T10:23:31;18.30;99.70
12370;DHT22;6249;52.128;9.986;2022-09-29T10:26:54;18.80;99.40
12370;DHT22;6249;52.128;9.986;2022-09-29T10:30:24;19.30;97.50
12370;DHT22;6249;52.128;9.986;2022-09-29T10:33:55;19.70;96.80
12370;DHT22;6249;52.128;9.986;2022-09-29T10:37:35;20.10;96.40
12370;DHT22;6249;52.128;9.986;2022-09-29T10:41:05;20.60;96.30
12370;DHT22;6249;52.128;9.986;2022-09-29T10:44:31;21.70;95.10
12370;DHT22;6249;52.128;9.986;2022-09-29T10:51:21;20.20;95.10
12370;DHT22;6249;52.128;9.986;2022-09-29T10:54:58;19.90;96.20
12370;DHT22;6249;52.128;9.986;2022-09-29T11:01:53;21.30;95.60
12370;DHT22;6249;52.128;9.986;2022-09-29T11:05:20;21.50;93.80
12370;DHT22;6249;52.128;9.986;2022-09-29T11:09:05;21.20;93.90
12370;DHT22;6249;52.128;9.986;2022-09-29T11:16:03;20.30;94.20
12370;DHT22;6249;52.128;9.986;2022-09-29T11:19:27;19.90;92.80
12370;DHT22;6249;52.128;9.986;2022-09-29T11:23:11;19.90;93.60
12370;DHT22;6249;52.128;9.986;2022-09-29T11:26:40;19.50;93.40
12370;DHT22;6249;52.128;9.986;2022-09-29T11:30:05;18.80;95.40
12370;DHT22;6249;52.128;9.986;2022-09-29T12:03:22;22.60;83.60
12370;DHT22;6249;52.128;9.986;2022-09-29T12:07:50;23.70;79.10
12370;DHT22;6249;52.128;9.986;2022-09-29T12:11:06;24.60;72.90
12370;DHT22;6249;52.128;9.986;2022-09-29T12:19:05;25.40;63.70
12370;DHT22;6249;52.128;9.986;2022-09-29T12:22:13;26.30;72.20
12370;DHT22;6249;52.128;9.986;2022-09-29T12:25:40;26.80;69.50
12370;DHT22;6249;52.128;9.986;2022-09-29T12:29:19;26.70;71.30
12370;DHT22;6249;52.128;9.986;2022-09-29T12:33:01;27.20;71.60
12370;DHT22;6249;52.128;9.986;2022-09-29T12:36:46;27.80;67.10
12370;DHT22;6249;52.128;9.986;2022-09-29T12:40:19;29.10;64.20
12370;DHT22;6249;52.128;9.986;2022-09-29T12:43:48;29.80;62.70
12370;DHT22;6249;52.128;9.986;2022-09-29T12:50:56;30.50;53.50
12370;DHT22;6249;52.128;9.986;2022-09-29T12:57:47;27.70;58.00
12370;DHT22;6249;52.128;9.986;2022-09-29T13:01:31;27.80;60.90
12370;DHT22;6249;52.128;9.986;2022-09-29T13:08:54;29.20;58.10
12370;DHT22;6249;52.128;9.986;2022-09-29T13:16:26;28.90;55.40
12370;DHT22;6249;52.128;9.986;2022-09-29T13:20:02;27.50;59.80
12370;DHT22;6249;52.128;9.986;2022-09-29T13:30:35;30.00;54.10
12370;DHT22;6249;52.128;9.986;2022-09-29T13:33:59;29.70;51.90
12370;DHT22;6249;52.128;9.986;2022-09-29T13:37:43;28.20;55.90
12370;DHT22;6249;52.128;9.986;2022-09-29T13:41:14;27.10;57.50
12370;DHT22;6249;52.128;9.986;2022-09-29T13:44:37;25.80;60.20
12370;DHT22;6249;52.128;9.986;2022-09-29T13:48:15;25.40;63.40
12370;DHT22;6249;52.128;9.986;2022-09-29T13:51:56;25.20;61.90
12370;DHT22;6249;52.128;9.986;2022-09-29T13:55:53;24.60;63.60
12370;DHT22;6249;52.128;9.986;2022-09-29T13:59:20;23.90;66.10
12370;DHT22;6249;52.128;9.986;2022-09-29T14:06:26;22.60;69.70
12370;DHT22;6249;52.128;9.986;2022-09-29T14:09:52;22.40;73.50
12370;DHT22;6249;52.128;9.986;2022-09-29T14:13:44;23.40;72.90
12370;DHT22;6249;52.128;9.986;2022-09-29T14:17:10;25.40;66.10
12370;DHT22;6249;52.128;9.986;2022-09-29T14:20:34;26.70;59.50
12370;DHT22;6249;52.128;9.986;2022-09-29T14:23:54;26.90;59.50
12370;DHT22;6249;52.128;9.986;2022-09-29T14:27:31;27.50;58.10
12370;DHT22;6249;52.128;9.986;2022-09-29T14:30:58;26.20;59.80
12370;DHT22;6249;52.128;9.986;2022-09-29T14:34:27;24.80;65.40
12370;DHT22;6249;52.128;9.986;2022-09-29T14:41:32;22.60;69.20
12370;DHT22;6249;52.128;9.986;2022-09-29T14:45:00;22.10;74.30
12370;DHT22;6249;52.128;9.986;2022-09-29T14:56:54;21.30;83.70
12370;DHT22;6249;52.128;9.986;2022-09-29T15:00:21;21.20;85.00
12370;DHT22;6249;52.128;9.986;2022-09-29T15:03:47;21.00;86.80
12370;DHT22;6249;52.128;9.986;2022-09-29T15:07:18;21.10;85.40
12370;DHT22;6249;52.128;9.986;2022-09-29T15:10:42;21.10;85.60
12370;DHT22;6249;52.128;9.986;2022-09-29T15:14:22;21.50;83.20
12370;DHT22;6249;52.128;9.986;2022-09-29T15:17:54;22.30;76.20
12370;DHT22;6249;52.128;9.986;2022-09-29T15:25:09;23.80;69.10
12370;DHT22;6249;52.128;9.986;2022-09-29T15:28:37;23.60;68.40
12370;DHT22;6249;52.128;9.986;2022-09-29T15:31:58;22.70;69.20
12370;DHT22;6249;52.128;9.986;2022-09-29T15:35:22;22.00;73.90
12370;DHT22;6249;52.128;9.986;2022-09-29T15:38:43;21.40;75.80
12370;DHT22;6249;52.128;9.986;2022-09-29T15:42:13;21.00;79.10
12370;DHT22;6249;52.128;9.986;2022-09-29T15:45:34;20.70;80.30
12370;DHT22;6249;52.128;9.986;2022-09-29T15:49:16;21.60;78.80
12370;DHT22;6249;52.128;9.986;2022-09-29T15:52:37;22.70;75.30
12370;DHT22;6249;52.128;9.986;2022-09-29T15:55:58;22.00;75.50
12370;DHT22;6249;52.128;9.986;2022-09-29T15:59:38;22.50;78.30
12370;DHT22;6249;52.128;9.986;2022-09-29T16:03:14;22.00;75.60
12370;DHT22;6249;52.128;9.986;2022-09-29T16:06:36;20.60;79.60
12370;DHT22;6249;52.128;9.986;2022-09-29T16:10:07;19.60;84.80
12370;DHT22;6249;52.128;9.986;2022-09-29T16:13:38;19.00;89.50
12370;DHT22;6249;52.128;9.986;2022-09-29T16:17:00;18.60;91.60
12370;DHT22;6249;52.128;9.986;2022-09-29T16:20:31;18.50;92.70
12370;DHT22;6249;52.128;9.986;2022-09-29T16:24:13;18.30;93.20
12370;DHT22;6249;52.128;9.986;2022-09-29T16:27:54;18.50;95.30
12370;DHT22;6249;52.128;9.986;2022-09-29T16:31:18;19.40;94.00
12370;DHT22;6249;52.128;9.986;2022-09-29T16:34:39;19.80;93.10
12370;DHT22;6249;52.128;9.986;2022-09-29T16:37:59;19.50;94.20
12370;DHT22;6249;52.128;9.986;2022-09-29T16:45:00;18.40;97.60
12370;DHT22;6249;52.128;9.986;2022-09-29T16:48:27;18.10;98.30
12370;DHT22;6249;52.128;9.986;2022-09-29T16:51:49;17.70;98.30
12370;DHT22;6249;52.128;9.986;2022-09-29T16:58:36;17.30;99.90
12370;DHT22;6249;52.128;9.986;2022-09-29T17:01:57;17.20;99.90
12370;DHT22;6249;52.128;9.986;2022-09-29T17:05:18;17.00;99.90
12370;DHT22;6249;52.128;9.986;2022-09-29T17:08:41;16.80;99.90
12370;DHT22;6249;52.128;9.986;2022-09-29T17:12:01;16.60;99.90
12370;DHT22;6249;52.128;9.986;2022-09-29T17:15:24;16.20;99.90
12370;DHT22;6249;52.128;9.986;2022-09-29T17:18:45;16.00;99.90
12370;DHT22;6249;52.128;9.986;2022-09-29T17:22:27;15.80;99.90
12370;DHT22;6249;52.128;9.986;2022-09-29T17:25:48;15.70;99.90
12370;DHT22;6249;52.128;9.986;2022-09-29T17:29:12;15.50;99.90
12370;DHT22;6249;52.128;9.986;2022-09-29T17:32:32;15.10;99.90
12370;DHT22;6249;52.128;9.986;2022-09-29T17:35:53;14.90;99.90
12370;DHT22;6249;52.128;9.986;2022-09-29T17:39:14;14.80;99.90
12370;DHT22;6249;52.128;9.986;2022-09-29T17:42:39;14.50;99.90
12370;DHT22;6249;52.128;9.986;2022-09-29T17:46:00;14.20;99.90
12370;DHT22;6249;52.128;9.986;2022-09-29T17:49:21;14.10;99.90
12370;DHT22;6249;52.128;9.986;2022-09-29T17:52:41;13.90;99.90
12370;DHT22;6249;52.128;9.986;2022-09-29T17:56:02;13.80;99.90
12370;DHT22;6249;52.128;9.986;2022-09-29T17:59:24;13.80;99.90
12370;DHT22;6249;52.128;9.986;2022-09-29T18:02:49;13.70;99.90
12370;DHT22;6249;52.128;9.986;2022-09-29T18:06:19;13.70;99.90
12370;DHT22;6249;52.128;9.986;2022-09-29T18:09:45;13.50;99.90
12370;DHT22;6249;52.128;9.986;2022-09-29T18:13:09;13.50;99.90
12370;DHT22;6249;52.128;9.986;2022-09-29T18:16:32;13.40;99.90
12370;DHT22;6249;52.128;9.986;2022-09-29T18:19:55;13.10;99.90
12370;DHT22;6249;52.128;9.986;2022-09-29T18:23:17;12.90;99.90
12370;DHT22;6249;52.128;9.986;2022-09-29T18:26:40;12.80;99.90
12370;DHT22;6249;52.128;9.986;2022-09-29T18:30:15;12.80;99.90
12370;DHT22;6249;52.128;9.986;2022-09-29T18:33:39;12.70;99.90
12370;DHT22;6249;52.128;9.986;2022-09-29T18:37:00;12.60;99.90
12370;DHT22;6249;52.128;9.986;2022-09-29T18:40:24;12.40;99.90
12370;DHT22;6249;52.128;9.986;2022-09-29T18:43:52;12.40;99.90
12370;DHT22;6249;52.128;9.986;2022-09-29T18:47:13;12.30;99.90
12370;DHT22;6249;52.128;9.986;2022-09-29T18:50:36;12.20;99.90
12370;DHT22;6249;52.128;9.986;2022-09-29T18:54:02;12.00;99.90
12370;DHT22;6249;52.128;9.986;2022-09-29T18:57:25;11.80;99.90
12370;DHT22;6249;52.128;9.986;2022-09-29T19:00:48;11.70;99.90
12370;DHT22;6249;52.128;9.986;2022-09-29T19:04:11;11.70;99.90
12370;DHT22;6249;52.128;9.986;2022-09-29T19:07:33;11.60;99.90
12370;DHT22;6249;52.128;9.986;2022-09-29T19:10:57;11.50;99.90
12370;DHT22;6249;52.128;9.986;2022-09-29T19:14:19;11.50;99.90
12370;DHT22;6249;52.128;9.986;2022-09-29T19:17:42;11.40;99.90
12370;DHT22;6249;52.128;9.986;2022-09-29T19:21:11;11.40;99.90
12370;DHT22;6249;52.128;9.986;2022-09-29T19:24:32;11.40;99.90
12370;DHT22;6249;52.128;9.986;2022-09-29T19:27:54;11.30;99.90
12370;DHT22;6249;52.128;9.986;2022-09-29T19:31:18;11.30;99.90
12370;DHT22;6249;52.128;9.986;2022-09-29T19:34:39;11.30;99.90
12370;DHT22;6249;52.128;9.986;2022-09-29T19:38:01;11.20;99.90
12370;DHT22;6249;52.128;9.986;2022-09-29T19:41:27;11.20;99.90
12370;DHT22;6249;52.128;9.986;2022-09-29T19:44:48;11.10;99.90
12370;DHT22;6249;52.128;9.986;2022-09-29T19:48:16;11.00;99.90
12370;DHT22;6249;52.128;9.986;2022-09-29T19:51:39;10.90;99.90
12370;DHT22;6249;52.128;9.986;2022-09-29T19:55:22;10.80;99.90
12370;DHT22;6249;52.128;9.986;2022-09-29T19:58:45;10.80;99.90
12370;DHT22;6249;52.128;9.986;2022-09-29T20:02:12;10.70;99.90
12370;DHT22;6249;52.128;9.986;2022-09-29T20:05:33;10.70;99.90
12370;DHT22;6249;52.128;9.986;2022-09-29T20:08:53;10.60;99.90
12370;DHT22;6249;52.128;9.986;2022-09-29T20:12:14;10.50;99.90
12370;DHT22;6249;52.128;9.986;2022-09-29T20:15:40;10.50;99.90
12370;DHT22;6249;52.128;9.986;2022-09-29T20:19:05;10.40;99.90
12370;DHT22;6249;52.128;9.986;2022-09-29T20:22:26;10.30;99.90
12370;DHT22;6249;52.128;9.986;2022-09-29T20:26:00;10.30;99.90
12370;DHT22;6249;52.128;9.986;2022-09-29T20:29:23;10.20;99.90
12370;DHT22;6249;52.128;9.986;2022-09-29T20:32:44;10.10;99.90
12370;DHT22;6249;52.128;9.986;2022-09-29T20:36:07;10.10;99.90
12370;DHT22;6249;52.128;9.986;2022-09-29T20:39:28;10.00;99.90
12370;DHT22;6249;52.128;9.986;2022-09-29T20:42:48;10.00;99.90
12370;DHT22;6249;52.128;9.986;2022-09-29T20:46:11;9.90;99.90
12370;DHT22;6249;52.128;9.986;2022-09-29T20:49:32;9.80;99.90
12370;DHT22;6249;52.128;9.986;2022-09-29T20:52:55;9.80;99.90
12370;DHT22;6249;52.128;9.986;2022-09-29T20:56:18;9.60;99.90
12370;DHT22;6249;52.128;9.986;2022-09-29T20:59:42;9.50;99.90
12370;DHT22;6249;52.128;9.986;2022-09-29T21:03:05;9.60;99.90
12370;DHT22;6249;52.128;9.986;2022-09-29T21:06:30;9.50;99.90
12370;DHT22;6249;52.128;9.986;2022-09-29T21:09:52;9.50;99.90
12370;DHT22;6249;52.128;9.986;2022-09-29T21:13:17;9.50;99.90
12370;DHT22;6249;52.128;9.986;2022-09-29T21:16:47;9.50;99.90
12370;DHT22;6249;52.128;9.986;2022-09-29T21:20:20;9.40;99.90
12370;DHT22;6249;52.128;9.986;2022-09-29T21:23:43;9.40;99.90
12370;DHT22;6249;52.128;9.986;2022-09-29T21:27:07;9.40;99.90
12370;DHT22;6249;52.128;9.986;2022-09-29T21:30:28;9.40;99.90
12370;DHT22;6249;52.128;9.986;2022-09-29T21:33:56;9.40;99.90
12370;DHT22;6249;52.128;9.986;2022-09-29T21:37:19;9.30;99.90
12370;DHT22;6249;52.128;9.986;2022-09-29T21:40:40;9.20;99.90
12370;DHT22;6249;52.128;9.986;2022-09-29T21:44:03;9.10;99.90
12370;DHT22;6249;52.128;9.986;2022-09-29T21:47:27;9.10;99.90
12370;DHT22;6249;52.128;9.986;2022-09-29T21:51:14;9.10;99.90
12370;DHT22;6249;52.128;9.986;2022-09-29T21:54:35;9.10;99.90
12370;DHT22;6249;52.128;9.986;2022-09-29T21:58:00;9.10;99.90
12370;DHT22;6249;52.128;9.986;2022-09-29T22:01:21;9.10;99.90
12370;DHT22;6249;52.128;9.986;2022-09-29T22:04:47;9.00;99.90
12370;DHT22;6249;52.128;9.986;2022-09-29T22:08:10;8.90;99.90
12370;DHT22;6249;52.128;9.986;2022-09-29T22:11:34;8.90;99.90
12370;DHT22;6249;52.128;9.986;2022-09-29T22:14:55;8.70;99.90
12370;DHT22;6249;52.128;9.986;2022-09-29T22:18:19;8.70;99.90
12370;DHT22;6249;52.128;9.986;2022-09-29T22:21:40;8.60;99.90
12370;DHT22;6249;52.128;9.986;2022-09-29T22:25:01;8.60;99.90
12370;DHT22;6249;52.128;9.986;2022-09-29T22:28:24;8.50;99.90
12370;DHT22;6249;52.128;9.986;2022-09-29T22:31:47;8.50;99.90
12370;DHT22;6249;52.128;9.986;2022-09-29T22:35:08;8.40;99.90
12370;DHT22;6249;52.128;9.986;2022-09-29T22:38:28;8.30;99.90
12370;DHT22;6249;52.128;9.986;2022-09-29T22:41:50;8.40;99.90
12370;DHT22;6249;52.128;9.986;2022-09-29T22:45:13;8.20;99.90
12370;DHT22;6249;52.128;9.986;2022-09-29T22:48:34;8.30;99.90
12370;DHT22;6249;52.128;9.986;2022-09-29T22:51:57;8.30;99.90
12370;DHT22;6249;52.128;9.986;2022-09-29T22:55:21;8.30;99.90
12370;DHT22;6249;52.128;9.986;2022-09-29T22:58:44;8.20;99.90
12370;DHT22;6249;52.128;9.986;2022-09-29T23:02:05;8.20;99.90
12370;DHT22;6249;52.128;9.986;2022-09-29T23:05:26;8.30;99.90
12370;DHT22;6249;52.128;9.986;2022-09-29T23:08:48;8.30;99.90
12370;DHT22;6249;52.128;9.986;2022-09-29T23:12:11;8.40;99.90
12370;DHT22;6249;52.128;9.986;2022-09-29T23:15:33;8.30;99.90
12370;DHT22;6249;52.128;9.986;2022-09-29T23:18:55;8.30;99.90
12370;DHT22;6249;52.128;9.986;2022-09-29T23:22:18;8.20;99.90
12370;DHT22;6249;52.128;9.986;2022-09-29T23:25:46;8.20;99.90
12370;DHT22;6249;52.128;9.986;2022-09-29T23:29:06;8.00;99.90
12370;DHT22;6249;52.128;9.986;2022-09-29T23:32:27;8.10;99.90
12370;DHT22;6249;52.128;9.986;2022-09-29T23:35:50;8.00;99.90
12370;DHT22;6249;52.128;9.986;2022-09-29T23:39:13;8.10;99.90
12370;DHT22;6249;52.128;9.986;2022-09-29T23:42:39;8.00;99.90
12370;DHT22;6249;52.128;9.986;2022-09-29T23:45:59;8.00;99.90
12370;DHT22;6249;52.128;9.986;2022-09-29T23:49:25;8.10;99.90
12370;DHT22;6249;52.128;9.986;2022-09-29T23:52:46;8.00;99.90
12370;DHT22;6249;52.128;9.986;2022-09-29T23:56:09;8.00;99.90
12370;DHT22;6249;52.128;9.986;2022-09-29T23:59:32;8.10;99.90
